Time;durP1;ratioP1;P1;durP2;ratioP2;P2;SDS_P1;SDS_P2;PMS_P1;PMS_P2;Temp;Humidity;BMP_temperature;BMP_pressure;BME280_temperature;BME280_humidity;BME280_pressure;Samples;Min_cycle;Max_cycle;Signal;HPM_P1;HPM_P2
2021/07/11 00:02:11;;;;;;;13.77;11.07;;;;;;;17.90;nan;100642.84;5023010;28;20042;-75
2021/07/11 00:04:36;;;;;;;11.77;10.60;;;;;;;17.88;nan;100650.03;5020655;28;20168;-75
2021/07/11 00:07:02;;;;;;;13.88;11.68;;;;;;;17.86;nan;100643.00;5021305;28;20041;-75
2021/07/11 00:09:27;;;;;;;12.15;10.90;;;;;;;17.85;nan;100643.94;5021039;28;20034;-76
2021/07/11 00:11:52;;;;;;;12.48;10.68;;;;;;;17.82;nan;100646.72;5022179;28;20037;-75
2021/07/11 00:14:18;;;;;;;12.55;11.25;;;;;;;17.77;nan;100645.97;5020977;28;20037;-76
2021/07/11 00:16:43;;;;;;;13.57;11.10;;;;;;;17.75;nan;100643.34;5021881;28;20040;-75
2021/07/11 00:19:09;;;;;;;14.07;12.68;;;;;;;17.63;nan;100646.41;5021337;28;20448;-75
2021/07/11 00:21:34;;;;;;;13.60;12.20;;;;;;;17.58;nan;100645.69;5021832;28;20104;-75
2021/07/11 00:23:59;;;;;;;13.90;12.60;;;;;;;17.54;nan;100642.28;5024743;28;20488;-75
2021/07/11 00:26:25;;;;;;;15.95;11.77;;;;;;;17.49;nan;100636.22;5030696;28;20037;-75
2021/07/11 00:28:50;;;;;;;13.05;11.15;;;;;;;17.45;nan;100638.13;5029361;28;20041;-75
2021/07/11 00:31:15;;;;;;;12.10;10.68;;;;;;;17.45;nan;100635.44;5021881;28;20038;-75
2021/07/11 00:33:41;;;;;;;13.02;10.77;;;;;;;17.46;nan;100631.84;5020786;28;20033;-75
2021/07/11 00:36:06;;;;;;;11.32;10.23;;;;;;;17.48;nan;100635.34;5021939;28;20021;-76
2021/07/11 00:38:32;;;;;;;12.23;10.40;;;;;;;17.48;nan;100635.34;5022970;28;20034;-76
2021/07/11 00:40:59;;;;;;;13.90;11.18;;;;;;;17.47;nan;100630.03;5029557;28;20029;-75
2021/07/11 00:43:27;;;;;;;11.48;10.32;;;;;;;17.45;nan;100632.78;5018200;28;20036;-75
2021/07/11 00:45:54;;;;;;;12.38;11.15;;;;;;;17.44;nan;100628.34;5017027;28;20514;-75
2021/07/11 00:48:20;;;;;;;11.90;10.57;;;;;;;17.45;nan;100631.91;5021626;28;20492;-75
2021/07/11 00:50:47;;;;;;;12.18;10.50;;;;;;;17.44;nan;100631.00;5015099;28;20030;-75
2021/07/11 00:53:14;;;;;;;11.40;10.18;;;;;;;17.41;nan;100627.59;5021885;28;20516;-75
2021/07/11 00:55:41;;;;;;;12.02;10.82;;;;;;;17.37;nan;100625.94;5021532;28;20106;-74
2021/07/11 00:58:07;;;;;;;12.38;9.27;;;;;;;17.30;nan;100627.94;5020823;28;20042;-75
2021/07/11 01:00:45;;;;;;;10.20;8.60;;;;;;;17.24;nan;100637.03;5020453;28;20037;-75
2021/07/11 01:03:23;;;;;;;10.60;9.43;;;;;;;17.12;nan;100628.53;5017852;28;20113;-75
2021/07/11 01:05:51;;;;;;;10.57;9.48;;;;;;;16.97;nan;100633.41;5025781;28;20058;-76
2021/07/11 01:08:38;;;;;;;10.70;9.25;;;;;;;16.92;nan;100631.81;5020952;28;20025;-74
2021/07/11 01:11:07;;;;;;;12.40;9.73;;;;;;;16.86;nan;100624.88;5020238;28;20026;-75
2021/07/11 01:13:36;;;;;;;12.10;10.02;;;;;;;16.84;nan;100624.03;5019706;28;20033;-75
2021/07/11 01:16:09;;;;;;;10.25;9.20;;;;;;;16.85;nan;100620.47;5021068;28;20038;-74
2021/07/11 01:18:41;;;;;;;13.75;11.18;;;;;;;16.85;nan;100623.16;5017852;28;20042;-75
2021/07/11 01:21:13;;;;;;;12.10;10.20;;;;;;;16.85;nan;100631.13;5018682;28;20034;-75
2021/07/11 01:24:15;;;;;;;12.73;11.00;;;;;;;16.83;nan;100630.31;5019217;28;20060;-75
2021/07/11 01:26:41;;;;;;;12.43;9.70;;;;;;;16.78;nan;100646.44;5012678;28;20077;-75
2021/07/11 01:29:08;;;;;;;11.27;10.00;;;;;;;16.72;nan;100641.25;5018250;28;20523;-75
2021/07/11 01:31:34;;;;;;;13.05;9.02;;;;;;;16.68;nan;100636.94;5034112;28;20038;-74
2021/07/11 01:34:00;;;;;;;11.40;10.20;;;;;;;16.63;nan;100642.38;5022493;28;20037;-75
2021/07/11 01:36:28;;;;;;;11.57;10.50;;;;;;;16.57;nan;100645.25;5018737;28;20030;-75
2021/07/11 01:38:54;;;;;;;13.27;10.85;;;;;;;16.54;nan;100647.13;5021135;28;20033;-76
2021/07/11 01:41:27;;;;;;;12.60;11.25;;;;;;;16.54;nan;100645.34;5020164;28;20525;-75
2021/07/11 01:43:55;;;;;;;12.30;10.98;;;;;;;16.58;nan;100635.44;5019579;28;20041;-75
2021/07/11 01:46:23;;;;;;;15.68;13.52;;;;;;;16.61;nan;100638.00;5016431;28;20033;-76
2021/07/11 01:48:50;;;;;;;12.55;11.23;;;;;;;16.59;nan;100637.22;5021423;28;20033;-76
2021/07/11 01:51:16;;;;;;;11.27;9.93;;;;;;;16.56;nan;100637.31;5018187;28;20508;-75
2021/07/11 01:53:45;;;;;;;10.57;9.52;;;;;;;16.45;nan;100632.25;5021862;28;20041;-75
2021/07/11 01:56:11;;;;;;;12.13;10.82;;;;;;;16.38;nan;100644.91;5021036;28;20038;-76
2021/07/11 01:58:40;;;;;;;12.00;10.80;;;;;;;16.36;nan;100643.19;5023423;28;20107;-75
2021/07/11 02:01:13;;;;;;;12.05;10.85;;;;;;;16.36;nan;100645.84;5018762;28;20025;-74
2021/07/11 02:03:39;;;;;;;11.93;10.65;;;;;;;16.36;nan;100645.84;5024148;28;20566;-75
2021/07/11 02:06:09;;;;;;;14.18;12.45;;;;;;;16.35;nan;100645.00;5023068;28;20564;-75
2021/07/11 02:08:41;;;;;;;16.02;12.13;;;;;;;16.37;nan;100644.94;5037323;28;20025;-74
2021/07/11 02:11:09;;;;;;;12.88;11.60;;;;;;;16.38;nan;100641.38;5024890;28;20037;-75
2021/07/11 02:13:54;;;;;;;14.73;12.35;;;;;;;16.42;nan;100641.22;5031185;28;20519;-75
2021/07/11 02:16:27;;;;;;;12.15;10.90;;;;;;;16.43;nan;100637.66;5028224;28;20025;-75
2021/07/11 02:18:59;;;;;;;13.70;12.18;;;;;;;16.47;nan;100642.88;5023537;28;20037;-75
2021/07/11 02:21:29;;;;;;;12.85;11.25;;;;;;;16.48;nan;100642.84;5026021;28;20487;-75
2021/07/11 02:24:00;;;;;;;14.93;13.18;;;;;;;16.51;nan;100633.91;5036770;28;20037;-74
2021/07/11 02:26:27;;;;;;;16.45;14.73;;;;;;;16.49;nan;100639.25;5032711;28;20091;-75
2021/07/11 02:28:53;;;;;;;12.90;11.23;;;;;;;16.41;nan;100639.47;5024557;28;20018;-75
2021/07/11 02:31:20;;;;;;;14.32;12.07;;;;;;;16.40;nan;100652.81;5026917;28;20041;-75
2021/07/11 02:33:46;;;;;;;13.90;12.50;;;;;;;16.44;nan;100647.38;5029073;28;20118;-75
2021/07/11 02:36:32;;;;;;;13.20;11.90;;;;;;;16.49;nan;100633.94;5034666;28;20041;-75
2021/07/11 02:39:07;;;;;;;12.57;11.38;;;;;;;16.51;nan;100642.75;5020416;28;20036;-75
2021/07/11 02:41:42;;;;;;;13.70;12.13;;;;;;;16.54;nan;100647.13;5022869;28;20034;-74
2021/07/11 02:44:10;;;;;;;14.32;12.93;;;;;;;16.54;nan;100648.00;5021684;28;20404;-75
2021/07/11 02:46:43;;;;;;;13.32;11.93;;;;;;;16.52;nan;100647.16;5019881;28;20030;-75
2021/07/11 02:49:15;;;;;;;15.10;11.93;;;;;;;16.51;nan;100641.91;5023823;28;20671;-75
2021/07/11 02:51:48;;;;;;;14.57;12.25;;;;;;;16.49;nan;100644.59;5022489;28;20041;-75
2021/07/11 02:54:18;;;;;;;12.30;11.10;;;;;;;16.48;nan;100649.94;5019005;28;20370;-75
2021/07/11 02:56:48;;;;;;;13.40;12.00;;;;;;;16.47;nan;100642.88;5024021;28;20037;-75
2021/07/11 02:59:15;;;;;;;13.20;11.73;;;;;;;16.46;nan;100641.16;5021107;28;20029;-75
2021/07/11 03:01:44;;;;;;;14.05;11.80;;;;;;;16.46;nan;100646.47;5021952;28;20060;-75
2021/07/11 03:04:14;;;;;;;13.23;11.75;;;;;;;16.43;nan;100637.66;5022267;28;20029;-75
2021/07/11 03:06:41;;;;;;;13.32;11.30;;;;;;;16.40;nan;100640.41;5017960;28;20188;-75
2021/07/11 03:09:08;;;;;;;14.20;12.13;;;;;;;16.39;nan;100635.13;5022671;28;20500;-75
2021/07/11 03:11:39;;;;;;;12.90;11.52;;;;;;;16.41;nan;100634.16;5020855;28;20120;-75
2021/07/11 03:14:08;;;;;;;16.00;11.07;;;;;;;16.43;nan;100634.13;5028723;28;20038;-74
2021/07/11 03:16:42;;;;;;;12.20;11.00;;;;;;;16.44;nan;100633.19;5033810;28;20116;-75
2021/07/11 03:19:11;;;;;;;13.07;9.90;;;;;;;16.46;nan;100636.69;5021657;28;20127;-75
2021/07/11 03:21:37;;;;;;;13.20;10.50;;;;;;;16.47;nan;100633.09;5017884;28;20030;-75
2021/07/11 03:24:05;;;;;;;13.07;11.25;;;;;;;16.51;nan;100637.44;5021413;28;20069;-75
2021/07/11 03:26:34;;;;;;;13.75;10.40;;;;;;;16.52;nan;100643.63;5021834;28;20116;-75
2021/07/11 03:29:14;;;;;;;11.80;10.55;;;;;;;16.52;nan;100640.97;5019251;28;20054;-75
2021/07/11 03:31:40;;;;;;;12.85;10.63;;;;;;;16.54;nan;100639.13;5021647;28;20036;-75
2021/07/11 03:34:07;;;;;;;12.85;11.55;;;;;;;16.61;nan;100641.56;5021644;28;20057;-74
2021/07/11 03:36:33;;;;;;;12.63;9.88;;;;;;;16.66;nan;100644.09;5022008;28;20034;-75
2021/07/11 03:39:13;;;;;;;12.75;11.48;;;;;;;16.72;nan;100643.06;5018972;28;20034;-74
2021/07/11 03:41:41;;;;;;;12.65;10.63;;;;;;;16.76;nan;100639.38;5022659;28;20067;-75
2021/07/11 03:44:12;;;;;;;12.32;10.68;;;;;;;16.83;nan;100640.97;5033106;28;20030;-74
2021/07/11 03:46:41;;;;;;;11.40;10.30;;;;;;;16.89;nan;100635.44;5025117;28;20537;-76
2021/07/11 03:49:11;;;;;;;12.32;11.10;;;;;;;16.96;nan;100630.81;5022205;28;20042;-76
2021/07/11 03:51:39;;;;;;;10.65;9.63;;;;;;;16.99;nan;100631.56;5020009;28;20108;-75
2021/07/11 03:54:09;;;;;;;10.23;9.18;;;;;;;17.06;nan;100622.47;5023554;28;20041;-75
2021/07/11 03:56:36;;;;;;;11.32;10.20;;;;;;;17.13;nan;100630.25;5018963;28;20049;-75
2021/07/11 03:59:04;;;;;;;11.55;10.38;;;;;;;17.21;nan;100626.47;5023292;28;20091;-75
2021/07/11 04:01:33;;;;;;;10.90;9.90;;;;;;;17.31;nan;100633.22;5021108;28;20037;-75
2021/07/11 04:04:01;;;;;;;13.13;10.85;;;;;;;17.40;nan;100629.38;5022126;28;20037;-75
2021/07/11 04:06:30;;;;;;;11.82;10.20;;;;;;;17.49;nan;100623.72;5017275;28;20136;-75
2021/07/11 04:08:58;;;;;;;11.93;10.70;;;;;;;17.60;nan;100626.03;5022575;28;20099;-75
2021/07/11 04:11:24;;;;;;;12.38;11.05;;;;;;;17.70;nan;100637.28;5020403;28;20034;-75
2021/07/11 04:13:50;;;;;;;12.38;11.07;;;;;;;17.78;nan;100635.22;5023168;28;20083;-75
2021/07/11 04:16:20;;;;;;;11.60;10.40;;;;;;;17.84;nan;100634.16;5019619;28;20029;-76
2021/07/11 04:18:47;;;;;;;12.95;10.80;;;;;;;17.92;nan;100638.34;5020094;28;20037;-76
2021/07/11 04:21:14;;;;;;;11.82;10.38;;;;;;;17.99;nan;100640.78;5022513;28;20117;-76
2021/07/11 04:23:41;;;;;;;10.38;9.27;;;;;;;18.02;nan;100640.66;5020766;28;20065;-76
2021/07/11 04:26:08;;;;;;;12.20;10.15;;;;;;;18.03;nan;100637.97;5020318;28;20041;-75
2021/07/11 04:28:36;;;;;;;11.32;10.32;;;;;;;18.11;nan;100640.38;5016866;28;20083;-76
2021/07/11 04:31:04;;;;;;;12.63;11.35;;;;;;;18.13;nan;100636.72;5021935;28;20416;-75
2021/07/11 04:33:31;;;;;;;14.23;11.02;;;;;;;18.20;nan;100641.81;5020450;28;20476;-75
2021/07/11 04:35:57;;;;;;;13.48;10.68;;;;;;;18.22;nan;100637.31;5017859;28;20034;-75
2021/07/11 04:38:23;;;;;;;11.20;10.05;;;;;;;18.25;nan;100627.38;5022789;28;20480;-75
2021/07/11 04:40:48;;;;;;;11.77;10.15;;;;;;;18.34;nan;100629.72;5019513;28;20042;-75
2021/07/11 04:43:16;;;;;;;11.07;9.98;;;;;;;18.46;nan;100628.38;5023193;28;20504;-75
2021/07/11 04:45:42;;;;;;;11.25;9.63;;;;;;;18.61;nan;100634.97;5019424;28;20131;-76
2021/07/11 04:48:08;;;;;;;10.88;9.55;;;;;;;18.71;nan;100630.16;5021485;28;20503;-76
2021/07/11 04:50:33;;;;;;;10.40;9.38;;;;;;;18.76;nan;100629.06;5015093;28;20030;-76
2021/07/11 04:52:59;;;;;;;9.93;8.93;;;;;;;18.88;nan;100624.16;5019971;28;20481;-75
2021/07/11 04:55:24;;;;;;;18.67;9.57;;;;;;;19.01;nan;100628.97;5021970;28;20037;-75
2021/07/11 04:57:50;;;;;;;13.32;9.77;;;;;;;19.15;nan;100636.47;5015835;28;20519;-76
2021/07/11 05:00:16;;;;;;;10.57;9.43;;;;;;;19.27;nan;100641.28;5020290;28;20519;-75
2021/07/11 05:02:41;;;;;;;10.50;9.25;;;;;;;19.39;nan;100639.94;5021775;28;20110;-75
2021/07/11 05:05:07;;;;;;;10.20;8.82;;;;;;;19.52;nan;100643.00;5026425;28;20056;-75
2021/07/11 05:07:33;;;;;;;9.57;8.57;;;;;;;19.62;nan;100649.72;5021532;28;20496;-75
2021/07/11 05:09:59;;;;;;;10.35;8.85;;;;;;;19.73;nan;100648.38;5017216;28;20507;-76
2021/07/11 05:12:24;;;;;;;9.30;8.30;;;;;;;19.82;nan;100642.66;5021443;28;20030;-77
2021/07/11 05:14:50;;;;;;;8.85;7.57;;;;;;;19.93;nan;100645.75;5020572;28;20041;-77
2021/07/11 05:17:16;;;;;;;10.20;8.00;;;;;;;20.03;nan;100644.41;5022049;28;20070;-77
2021/07/11 05:19:42;;;;;;;8.55;7.72;;;;;;;20.14;nan;100649.28;5020315;28;20073;-76
2021/07/11 05:22:08;;;;;;;8.50;7.60;;;;;;;20.29;nan;100645.06;5022196;28;20064;-74
2021/07/11 05:24:33;;;;;;;9.55;7.45;;;;;;;20.45;nan;100655.97;5027030;28;20042;-73
2021/07/11 05:26:59;;;;;;;7.82;7.03;;;;;;;20.57;nan;100648.28;5022258;28;20034;-74
2021/07/11 05:29:24;;;;;;;7.75;6.22;;;;;;;20.70;nan;100645.03;5019486;28;20034;-75
2021/07/11 05:31:49;;;;;;;9.10;6.70;;;;;;;20.81;nan;100645.41;5022401;28;20480;-74
2021/07/11 05:34:15;;;;;;;11.13;7.53;;;;;;;20.84;nan;100649.75;5026544;28;20120;-74
2021/07/11 05:36:40;;;;;;;8.55;6.57;;;;;;;20.83;nan;100643.53;5022670;28;20045;-75
2021/07/11 05:39:05;;;;;;;10.48;6.63;;;;;;;20.96;nan;100644.69;5026323;28;20041;-74
2021/07/11 05:41:31;;;;;;;9.23;6.28;;;;;;;21.09;nan;100650.34;5022661;28;20044;-74
2021/07/11 05:43:57;;;;;;;7.60;5.88;;;;;;;21.19;nan;100640.88;5026281;28;20522;-74
2021/07/11 05:46:22;;;;;;;7.63;5.85;;;;;;;21.25;nan;100647.78;5022674;28;20042;-75
2021/07/11 05:48:47;;;;;;;7.85;6.30;;;;;;;21.32;nan;100651.88;5025847;28;20079;-73
2021/07/11 05:51:13;;;;;;;10.10;5.80;;;;;;;21.44;nan;100645.97;5022828;28;20064;-75
2021/07/11 05:53:38;;;;;;;6.35;5.53;;;;;;;21.57;nan;100646.22;5027782;28;20391;-74
2021/07/11 05:56:04;;;;;;;7.70;5.55;;;;;;;21.54;nan;100642.81;5049095;23;20106;-77
2021/07/11 05:58:29;;;;;;;7.72;4.90;;;;;;;21.59;nan;100630.03;5044139;28;20447;-76
2021/07/11 06:00:54;;;;;;;6.10;5.15;;;;;;;21.68;nan;100637.63;5041405;28;20049;-76
2021/07/11 06:03:20;;;;;;;6.13;4.90;;;;;;;21.74;nan;100631.06;5044020;28;20039;-76
2021/07/11 06:05:46;;;;;;;7.18;5.05;;;;;;;21.77;nan;100634.47;5031095;28;20052;-76
2021/07/11 06:08:11;;;;;;;5.65;4.72;;;;;;;21.77;nan;100629.09;5025384;28;20057;-75
2021/07/11 06:10:37;;;;;;;6.65;5.07;;;;;;;21.75;nan;100624.75;5023163;28;20022;-77
2021/07/11 06:13:02;;;;;;;6.40;5.18;;;;;;;21.69;nan;100628.59;5023621;28;20117;-77
2021/07/11 06:15:28;;;;;;;6.82;4.97;;;;;;;21.67;nan;100636.75;5024693;28;20052;-77
2021/07/11 06:17:53;;;;;;;6.28;4.72;;;;;;;21.67;nan;100627.84;5023196;28;20038;-77
2021/07/11 06:20:18;;;;;;;6.13;4.93;;;;;;;21.72;nan;100627.56;5023243;28;20060;-77
2021/07/11 06:22:44;;;;;;;6.93;4.32;;;;;;;21.77;nan;100634.47;5025010;28;20033;-77
2021/07/11 06:25:10;;;;;;;5.63;4.78;;;;;;;21.88;nan;100637.47;5022944;28;20033;-77
2021/07/11 06:27:41;;;;;;;5.53;4.70;;;;;;;21.96;nan;100641.59;5023070;28;20519;-77
2021/07/11 06:30:11;;;;;;;6.50;4.70;;;;;;;22.02;nan;100639.44;5021537;28;20037;-77
2021/07/11 06:32:41;;;;;;;5.28;4.43;;;;;;;22.08;nan;100643.63;5022653;28;20037;-77
2021/07/11 06:35:08;;;;;;;8.25;4.80;;;;;;;22.12;nan;100645.22;5022586;28;20072;-77
2021/07/11 06:37:34;;;;;;;8.30;4.32;;;;;;;22.18;nan;100652.09;5022733;28;20038;-77
2021/07/11 06:39:59;;;;;;;9.52;4.30;;;;;;;22.24;nan;100654.47;5024954;28;20079;-77
2021/07/11 06:42:25;;;;;;;5.53;4.18;;;;;;;22.21;nan;100649.25;5023405;28;20120;-77
2021/07/11 06:44:50;;;;;;;5.20;4.28;;;;;;;22.24;nan;100652.69;5019686;28;20451;-77
2021/07/11 06:47:16;;;;;;;8.13;4.30;;;;;;;22.29;nan;100644.34;5024905;28;20531;-77
2021/07/11 06:49:42;;;;;;;5.38;3.88;;;;;;;22.36;nan;100648.44;5023316;28;20026;-77
2021/07/11 06:52:07;;;;;;;5.18;3.67;;;;;;;22.38;nan;100649.25;5022083;28;20095;-77
2021/07/11 06:54:33;;;;;;;4.90;3.50;;;;;;;22.44;nan;100645.34;5024036;28;20033;-77
2021/07/11 06:56:58;;;;;;;5.22;4.00;;;;;;;22.48;nan;100634.34;5035233;28;20137;-77
2021/07/11 06:59:23;;;;;;;4.80;3.30;;;;;;;22.54;nan;100634.00;5024234;28;20132;-77
2021/07/11 07:01:49;;;;;;;4.97;3.17;;;;;;;22.58;nan;100640.09;5022146;28;20042;-77
2021/07/11 07:04:14;;;;;;;4.25;3.60;;;;;;;22.64;nan;100641.59;5022580;28;20093;-77
2021/07/11 07:06:39;;;;;;;5.38;3.75;;;;;;;22.66;nan;100631.59;5024051;28;20038;-77
2021/07/11 07:09:05;;;;;;;6.53;3.08;;;;;;;22.68;nan;100640.47;5022089;28;20042;-77
2021/07/11 07:11:30;;;;;;;5.95;3.50;;;;;;;22.69;nan;100639.53;5022618;28;20042;-77
2021/07/11 07:13:55;;;;;;;5.68;3.15;;;;;;;22.72;nan;100634.84;5024005;28;20057;-77
2021/07/11 07:16:21;;;;;;;15.27;12.65;;;;;;;22.84;nan;100640.47;5021821;28;20034;-76
2021/07/11 07:18:46;;;;;;;6.53;5.53;;;;;;;22.93;nan;100643.53;5022003;28;20682;-77
2021/07/11 07:21:12;;;;;;;5.40;3.80;;;;;;;22.99;nan;100641.50;5036151;28;20049;-77
2021/07/11 07:23:37;;;;;;;4.57;3.25;;;;;;;23.04;nan;100642.97;5023363;28;20038;-76
2021/07/11 07:26:03;;;;;;;5.22;3.47;;;;;;;23.14;nan;100638.81;5023126;28;20108;-76
2021/07/11 07:28:28;;;;;;;6.60;3.58;;;;;;;23.26;nan;100641.75;5021328;28;20081;-77
2021/07/11 07:30:53;;;;;;;4.03;3.20;;;;;;;23.33;nan;100638.59;5021854;28;20041;-76
2021/07/11 07:33:19;;;;;;;4.47;3.05;;;;;;;23.40;nan;100636.44;5026729;28;20044;-75
2021/07/11 07:35:44;;;;;;;3.88;3.10;;;;;;;23.44;nan;100635.28;5020843;28;20038;-76
2021/07/11 07:38:09;;;;;;;5.55;3.20;;;;;;;23.48;nan;100636.00;5021572;28;20037;-76
2021/07/11 07:40:35;;;;;;;4.57;2.95;;;;;;;23.57;nan;100630.91;5023365;28;20038;-75
2021/07/11 07:43:00;;;;;;;5.53;3.30;;;;;;;23.67;nan;100631.25;5020998;28;20507;-75
2021/07/11 07:45:25;;;;;;;3.42;2.70;;;;;;;23.71;nan;100630.13;5020864;28;20033;-75
2021/07/11 07:47:51;;;;;;;4.47;3.00;;;;;;;23.89;nan;100638.94;5023349;28;20045;-76
2021/07/11 07:50:17;;;;;;;3.47;2.47;;;;;;;24.01;nan;100627.44;5036235;28;20038;-75
2021/07/11 07:52:43;;;;;;;4.25;2.72;;;;;;;24.17;nan;100626.50;5026114;28;20037;-75
2021/07/11 07:55:09;;;;;;;4.35;2.90;;;;;;;24.28;nan;100624.88;5020114;28;20116;-75
2021/07/11 07:57:35;;;;;;;3.75;2.45;;;;;;;24.38;nan;100627.00;5021543;28;20033;-76
2021/07/11 08:00:00;;;;;;;4.50;2.70;;;;;;;24.39;nan;100632.31;5022464;28;20060;-76
2021/07/11 08:02:26;;;;;;;6.18;2.60;;;;;;;24.49;nan;100630.78;5020766;28;20064;-74
2021/07/11 08:04:52;;;;;;;3.53;2.45;;;;;;;24.57;nan;100629.44;5022334;28;20041;-76
2021/07/11 08:07:24;;;;;;;5.57;2.10;;;;;;;24.70;nan;100636.66;5022658;28;20041;-76
2021/07/11 08:09:49;;;;;;;3.10;2.20;;;;;;;24.85;nan;100632.13;5023086;28;20099;-76
2021/07/11 08:12:15;;;;;;;5.13;2.30;;;;;;;24.96;nan;100627.88;5021314;28;20580;-76
2021/07/11 08:14:40;;;;;;;4.82;2.30;;;;;;;25.03;nan;100630.06;5022765;28;20526;-76
2021/07/11 08:17:06;;;;;;;3.83;2.17;;;;;;;25.13;nan;100635.75;5021077;28;20531;-76
2021/07/11 08:19:32;;;;;;;3.75;2.10;;;;;;;25.20;nan;100631.69;5020940;28;20046;-77
2021/07/11 08:21:57;;;;;;;2.83;1.88;;;;;;;25.30;nan;100627.41;5022859;28;20043;-77
2021/07/11 08:24:23;;;;;;;3.97;1.60;;;;;;;25.35;nan;100630.69;5021109;28;20381;-76
2021/07/11 08:26:49;;;;;;;2.38;1.60;;;;;;;25.35;nan;100630.69;5020466;28;20042;-76
2021/07/11 08:29:14;;;;;;;2.65;1.60;;;;;;;25.41;nan;100633.94;5022791;28;20094;-77
2021/07/11 08:31:40;;;;;;;4.28;1.83;;;;;;;25.46;nan;100635.38;5021430;28;20065;-76
2021/07/11 08:34:05;;;;;;;3.00;1.63;;;;;;;25.52;nan;100639.53;5020357;28;20045;-76
2021/07/11 08:36:31;;;;;;;2.88;1.70;;;;;;;25.59;nan;100635.41;5035255;28;20073;-76
2021/07/11 08:38:57;;;;;;;2.42;1.48;;;;;;;25.69;nan;100633.81;5021217;28;20094;-76
2021/07/11 08:41:24;;;;;;;2.72;1.40;;;;;;;25.75;nan;100628.03;5022595;28;20056;-76
2021/07/11 08:43:51;;;;;;;2.40;1.23;;;;;;;25.85;nan;100635.53;5020707;28;20037;-77
2021/07/11 08:46:16;;;;;;;3.75;1.60;;;;;;;25.95;nan;100628.50;5020176;28;20042;-76
2021/07/11 08:48:43;;;;;;;3.95;1.60;;;;;;;26.13;nan;100627.25;5034957;28;20025;-76
2021/07/11 08:51:08;;;;;;;3.97;1.83;;;;;;;26.31;nan;100627.78;5021513;28;20048;-77
2021/07/11 08:53:34;;;;;;;3.38;1.70;;;;;;;26.46;nan;100631.22;5034553;28;20030;-76
2021/07/11 08:56:03;;;;;;;3.78;1.90;;;;;;;26.60;nan;100627.59;5021918;28;20484;-76
2021/07/11 08:58:29;;;;;;;2.13;1.48;;;;;;;26.73;nan;100628.44;5021824;28;20045;-76
2021/07/11 09:00:54;;;;;;;2.85;1.65;;;;;;;26.96;nan;100632.19;5019955;28;20034;-76
2021/07/11 09:03:19;;;;;;;4.18;1.88;;;;;;;27.18;nan;100636.06;5021835;28;20037;-76
2021/07/11 09:05:45;;;;;;;3.78;1.52;;;;;;;27.42;nan;100630.63;5021627;28;20045;-77
2021/07/11 09:08:23;;;;;;;2.95;1.67;;;;;;;27.61;nan;100633.69;5022024;28;20037;-77
2021/07/11 09:10:57;;;;;;;3.75;1.63;;;;;;;27.88;nan;100636.19;5022868;28;20037;-77
2021/07/11 09:13:28;;;;;;;2.42;1.40;;;;;;;28.08;nan;100641.88;5025106;28;20033;-77
2021/07/11 09:15:55;;;;;;;2.95;1.23;;;;;;;28.15;nan;100640.44;5026051;28;20120;-77
2021/07/11 09:18:30;;;;;;;3.05;1.48;;;;;;;28.06;nan;100638.44;5039144;28;20029;-75
2021/07/11 09:21:06;;;;;;;3.42;1.30;;;;;;;28.03;nan;100633.25;5032584;28;20553;-75
2021/07/11 09:23:32;;;;;;;2.00;1.40;;;;;;;28.14;nan;100630.59;5030729;28;20091;-77
2021/07/11 09:26:11;;;;;;;3.03;1.45;;;;;;;28.23;nan;100635.28;5030299;28;20120;-76
2021/07/11 09:28:39;;;;;;;1.63;1.13;;;;;;;28.23;nan;100627.13;5032771;28;20037;-76
2021/07/11 09:31:10;;;;;;;3.15;1.40;;;;;;;28.32;nan;100626.41;5028715;28;20033;-77
2021/07/11 09:33:38;;;;;;;1.80;1.10;;;;;;;28.38;nan;100636.78;5030335;28;20047;-75
2021/07/11 09:36:06;;;;;;;3.03;1.35;;;;;;;28.65;nan;100630.16;5024772;28;20048;-76
2021/07/11 09:38:31;;;;;;;2.35;1.17;;;;;;;28.91;nan;100627.19;5023492;28;20064;-76
2021/07/11 09:40:56;;;;;;;1.92;1.25;;;;;;;28.98;nan;100633.84;5023821;28;20072;-76
2021/07/11 09:43:22;;;;;;;2.50;1.27;;;;;;;29.12;nan;100627.31;5032905;28;20044;-77
2021/07/11 09:45:47;;;;;;;1.80;1.20;;;;;;;29.22;nan;100620.97;5025302;28;20029;-76
2021/07/11 09:48:14;;;;;;;1.80;1.20;;;;;;;29.14;nan;100626.19;5028082;28;20040;-76
2021/07/11 09:50:40;;;;;;;2.08;1.10;;;;;;;29.45;nan;100621.78;5025487;28;20175;-77
2021/07/11 09:53:11;;;;;;;2.38;1.30;;;;;;;29.60;nan;100616.88;5023135;28;20187;-77
2021/07/11 09:55:37;;;;;;;2.38;1.10;;;;;;;29.83;nan;100617.69;5023267;28;20132;-77
2021/07/11 09:58:06;;;;;;;2.08;1.05;;;;;;;29.93;nan;100613.16;5025602;28;20528;-77
2021/07/11 10:00:41;;;;;;;2.40;0.95;;;;;;;29.94;nan;100619.47;5024289;28;20030;-75
2021/07/11 10:03:10;;;;;;;2.10;1.10;;;;;;;30.06;nan;100617.56;5023317;28;20034;-77
2021/07/11 10:05:35;;;;;;;2.30;1.05;;;;;;;30.11;nan;100620.75;5022449;28;20048;-76
2021/07/11 10:08:01;;;;;;;4.28;1.10;;;;;;;30.15;nan;100617.59;5026694;28;20412;-77
2021/07/11 10:10:30;;;;;;;1.80;1.00;;;;;;;30.17;nan;100612.03;5024576;28;20026;-76
2021/07/11 10:12:57;;;;;;;1.83;1.02;;;;;;;30.21;nan;100605.34;5021098;28;20505;-77
2021/07/11 10:15:25;;;;;;;1.75;1.10;;;;;;;29.98;nan;100612.78;5024323;28;20040;-77
2021/07/11 10:18:00;;;;;;;1.88;0.93;;;;;;;29.97;nan;100613.75;5036696;28;20627;-76
2021/07/11 10:20:33;;;;;;;1.75;0.93;;;;;;;30.00;nan;100613.50;5022017;28;20128;-77
2021/07/11 10:23:00;;;;;;;1.90;1.00;;;;;;;30.02;nan;100616.09;5021328;28;20038;-77
2021/07/11 10:25:30;;;;;;;3.22;1.02;;;;;;;29.85;nan;100612.13;5020440;28;20130;-77
2021/07/11 10:28:12;;;;;;;1.88;1.02;;;;;;;29.84;nan;100615.81;5025198;28;20135;-77
2021/07/11 10:30:40;;;;;;;2.08;1.00;;;;;;;29.87;nan;100612.84;5024965;28;20029;-77
2021/07/11 10:33:15;;;;;;;2.17;1.00;;;;;;;29.97;nan;100613.75;5023290;28;20034;-77
2021/07/11 10:36:04;;;;;;;2.53;1.05;;;;;;;29.95;nan;100610.34;5022050;28;20111;-77
2021/07/11 10:38:33;;;;;;;1.38;1.00;;;;;;;30.05;nan;100615.81;5038168;28;20060;-76
2021/07/11 10:41:09;;;;;;;1.90;1.00;;;;;;;30.24;nan;100615.13;5022190;28;20060;-76
2021/07/11 10:43:35;;;;;;;1.85;1.10;;;;;;;30.27;nan;100603.97;5023661;28;20048;-77
2021/07/11 10:46:00;;;;;;;1.83;1.20;;;;;;;30.41;nan;100608.19;5020496;28;20042;-78
2021/07/11 10:48:30;;;;;;;2.72;1.17;;;;;;;30.46;nan;100604.06;5024261;28;20044;-77
2021/07/11 10:50:55;;;;;;;2.05;1.05;;;;;;;30.34;nan;100599.72;5024335;28;20038;-77
2021/07/11 10:53:21;;;;;;;1.95;1.05;;;;;;;30.47;nan;100589.47;5022026;28;20038;-76
2021/07/11 10:55:47;;;;;;;3.40;1.20;;;;;;;30.56;nan;100594.06;5021532;28;20073;-77
2021/07/11 10:58:19;;;;;;;1.63;1.10;;;;;;;30.57;nan;100593.06;5025642;28;20074;-76
2021/07/11 11:00:47;;;;;;;1.98;1.00;;;;;;;30.57;nan;100587.59;5022749;28;20053;-77
2021/07/11 11:03:20;;;;;;;2.38;1.02;;;;;;;30.82;nan;100595.50;5021874;28;20132;-77
2021/07/11 11:05:48;;;;;;;2.78;1.20;;;;;;;31.08;nan;100590.41;5022816;28;20048;-77
2021/07/11 11:08:15;;;;;;;1.90;1.10;;;;;;;31.25;nan;100597.84;5024137;28;20132;-76
2021/07/11 11:10:43;;;;;;;3.60;1.30;;;;;;;31.25;nan;100597.84;5022826;28;20484;-78
2021/07/11 11:13:19;;;;;;;2.88;1.33;;;;;;;31.23;nan;100591.69;5021805;28;20119;-77
2021/07/11 11:15:58;;;;;;;2.22;1.23;;;;;;;31.23;nan;100588.97;5022756;28;20034;-77
2021/07/11 11:18:38;;;;;;;2.00;1.08;;;;;;;31.28;nan;100583.09;5022392;28;20041;-77
2021/07/11 11:21:15;;;;;;;1.90;1.05;;;;;;;31.16;nan;100590.53;5021873;28;20049;-77
2021/07/11 11:23:44;;;;;;;2.30;1.10;;;;;;;30.90;nan;100584.75;5021490;28;20041;-77
2021/07/11 11:26:15;;;;;;;2.30;1.20;;;;;;;30.94;nan;100578.91;5021084;28;20087;-77
2021/07/11 11:28:41;;;;;;;2.17;1.10;;;;;;;30.95;nan;100582.47;5021394;28;20167;-77
2021/07/11 11:31:10;;;;;;;2.22;1.20;;;;;;;31.10;nan;100572.91;5022203;28;20029;-77
2021/07/11 11:33:59;;;;;;;1.75;1.00;;;;;;;31.28;nan;100577.63;5025991;28;20080;-77
2021/07/11 11:36:32;;;;;;;2.03;1.00;;;;;;;31.04;nan;100576.16;5021051;28;20030;-77
2021/07/11 11:39:05;;;;;;;1.70;1.00;;;;;;;31.15;nan;100575.16;5021530;28;20033;-77